Terminal Aerodrome Forecast
Issued by NWS

Home | Current Version | Previous Version | Text Only | Print | Product List | Glossary On
Versions: 1 2 3 4 5 6 7 8 9 10 11 12 13 14 15 16
000
FTUS44 KLZK 192000 AAA
TAFPBF
TAF AMD
KPBF 192014Z 1920/2018 07006KT P6SM SCT015 OVC060
      TEMPO 1920/1924 -RA BKN015
     FM200000 04004KT P6SM SCT012 OVC020
     FM200900 03003KT 5SM BR OVC012
      TEMPO 2010/2014 3SM BR OVC007
     FM201500 03003KT P6SM BKN015
     FM201700 04004KT P6SM SCT025 BKN060=

USA.gov is the U.S. government's official web portal to all federal, state and local government web resources and services.